Time;durP1;ratioP1;P1;durP2;ratioP2;P2;SDS_P1;SDS_P2;PMS_P1;PMS_P2;Temp;Humidity;BMP_temperature;BMP_pressure;BME280_temperature;BME280_humidity;BME280_pressure;Samples;Min_cycle;Max_cycle;Signal;HPM_P1;HPM_P2
2023/09/20 00:02:12;;;;;;;0.00;0.00;;;17.50;99.90;;;;;;6213289;23;20001;-86
2023/09/20 00:04:38;;;;;;;0.00;0.00;;;;;;;;;;6213778;23;20005;-87
2023/09/20 00:07:07;;;;;;;0.00;0.00;;;17.50;99.90;;;;;;6214516;23;20234;-88
2023/09/20 00:09:33;;;;;;;0.00;0.00;;;;;;;;;;6214130;23;20127;-87
2023/09/20 00:11:59;;;;;;;0.00;0.00;;;;;;;;;;6214330;23;20060;-89
2023/09/20 00:14:25;;;;;;;0.00;0.00;;;;;;;;;;6212267;23;20008;-89
2023/09/20 00:16:52;;;;;;;0.00;0.00;;;;;;;;;;6214827;23;20007;-88
2023/09/20 00:19:18;;;;;;;0.00;0.00;;;17.60;99.90;;;;;;6214099;23;20011;-88
2023/09/20 00:21:44;;;;;;;0.00;0.00;;;17.70;99.90;;;;;;6213484;23;20387;-87
2023/09/20 00:24:10;;;;;;;0.00;0.00;;;17.60;99.90;;;;;;6213259;23;20079;-88
2023/09/20 00:26:36;;;;;;;0.00;0.00;;;;;;;;;;6213678;23;20020;-87
2023/09/20 00:29:05;;;;;;;0.00;0.00;;;17.70;99.90;;;;;;6214754;23;20451;-89
2023/09/20 00:31:34;;;;;;;0.00;0.00;;;17.60;99.90;;;;;;6213654;23;20083;-88
2023/09/20 00:34:03;;;;;;;0.00;0.00;;;;;;;;;;6213677;23;20055;-88
2023/09/20 00:36:31;;;;;;;0.00;0.00;;;17.80;99.90;;;;;;6213960;23;20050;-89
2023/09/20 00:38:57;;;;;;;0.00;0.00;;;17.80;99.90;;;;;;6213003;23;20005;-89
2023/09/20 00:41:24;;;;;;;0.00;0.00;;;17.70;99.90;;;;;;6213243;23;20013;-88
2023/09/20 00:43:52;;;;;;;0.00;0.00;;;;;;;;;;6213492;23;20043;-89
2023/09/20 00:46:19;;;;;;;0.00;0.00;;;17.80;99.90;;;;;;6213093;23;20335;-88
2023/09/20 00:48:45;;;;;;;0.00;0.00;;;17.70;99.90;;;;;;6213273;23;20467;-88
2023/09/20 00:51:11;;;;;;;0.00;0.00;;;17.60;99.90;;;;;;6213815;23;20032;-87
2023/09/20 00:53:38;;;;;;;0.00;0.00;;;17.60;99.90;;;;;;6213628;23;20005;-89
2023/09/20 00:56:05;;;;;;;0.00;0.00;;;17.60;99.90;;;;;;6213666;23;20032;-88
2023/09/20 00:58:34;;;;;;;0.00;0.00;;;17.50;99.90;;;;;;6214316;23;20009;-89
2023/09/20 01:01:00;;;;;;;0.00;0.00;;;17.50;99.90;;;;;;6213446;23;20005;-88
2023/09/20 01:03:27;;;;;;;0.00;0.00;;;17.40;99.90;;;;;;6213799;23;20009;-88
2023/09/20 01:05:54;;;;;;;0.00;0.00;;;17.60;99.90;;;;;;6212427;23;20511;-87
2023/09/20 01:08:20;;;;;;;0.00;0.00;;;17.60;99.90;;;;;;6213538;23;20313;-88
2023/09/20 01:10:47;;;;;;;0.00;0.00;;;;;;;;;;6212778;23;20010;-87
2023/09/20 01:13:13;;;;;;;0.00;0.00;;;17.50;99.90;;;;;;6213658;23;20012;-88
2023/09/20 01:15:38;;;;;;;0.00;0.00;;;17.50;99.90;;;;;;6213252;23;20321;-88
2023/09/20 01:18:05;;;;;;;0.00;0.00;;;17.60;99.90;;;;;;6213811;23;20139;-88
2023/09/20 01:20:33;;;;;;;0.00;0.00;;;17.60;99.90;;;;;;6213054;23;20004;-88
2023/09/20 01:23:00;;;;;;;0.00;0.00;;;17.40;99.90;;;;;;6212772;23;20016;-88
2023/09/20 01:25:31;;;;;;;0.00;0.00;;;17.60;99.90;;;;;;6213247;23;20395;-87
2023/09/20 01:28:03;;;;;;;0.00;0.00;;;17.50;99.90;;;;;;6211838;23;20014;-88
2023/09/20 01:30:30;;;;;;;0.00;0.00;;;17.40;99.90;;;;;;6212750;23;20009;-87
2023/09/20 01:32:57;;;;;;;0.00;0.00;;;17.50;99.90;;;;;;6212910;23;20428;-88
2023/09/20 01:35:25;;;;;;;0.00;0.00;;;17.60;99.90;;;;;;6213129;23;20040;-88
2023/09/20 01:37:51;;;;;;;0.00;0.00;;;17.60;99.90;;;;;;6212875;23;20012;-88
2023/09/20 01:40:19;;;;;;;0.00;0.00;;;17.70;99.90;;;;;;6212537;23;20008;-88
2023/09/20 01:42:48;;;;;;;0.00;0.00;;;17.60;99.90;;;;;;6212699;23;20008;-88
2023/09/20 01:45:19;;;;;;;0.00;0.00;;;17.60;99.90;;;;;;6212165;23;20000;-87
2023/09/20 01:47:47;;;;;;;0.00;0.00;;;17.60;99.90;;;;;;6212744;23;20003;-87
2023/09/20 01:50:19;;;;;;;0.00;0.00;;;17.50;99.90;;;;;;6212923;23;20063;-88
2023/09/20 01:52:49;;;;;;;0.00;0.00;;;17.60;99.90;;;;;;6213357;23;20083;-88
2023/09/20 01:55:17;;;;;;;0.00;0.00;;;17.50;99.90;;;;;;6212734;23;20001;-88
2023/09/20 01:57:46;;;;;;;0.00;0.00;;;17.50;99.90;;;;;;6213154;23;20009;-88
2023/09/20 02:00:22;;;;;;;0.00;0.00;;;17.60;99.90;;;;;;6212526;23;20091;-89
2023/09/20 02:02:53;;;;;;;0.00;0.00;;;17.40;99.90;;;;;;6213170;23;20039;-89
2023/09/20 02:05:19;;;;;;;0.00;0.00;;;17.30;99.90;;;;;;6211416;23;20440;-88
2023/09/20 02:07:46;;;;;;;0.00;0.00;;;17.40;99.90;;;;;;6213066;23;20007;-89
2023/09/20 02:10:12;;;;;;;0.00;0.00;;;17.40;99.90;;;;;;6213449;23;20000;-87
2023/09/20 02:12:38;;;;;;;0.00;0.00;;;;;;;;;;6213012;23;20062;-87
2023/09/20 02:15:07;;;;;;;0.00;0.00;;;;;;;;;;6211479;23;20423;-88
2023/09/20 02:17:35;;;;;;;0.00;0.00;;;17.20;99.90;;;;;;6213839;23;20062;-89
2023/09/20 02:20:08;;;;;;;0.00;0.00;;;17.10;99.90;;;;;;6212092;23;20013;-88
2023/09/20 02:22:35;;;;;;;0.00;0.00;;;;;;;;;;6214260;23;20004;-88
2023/09/20 02:25:03;;;;;;;0.00;0.00;;;;;;;;;;6212035;23;20004;-87
2023/09/20 02:27:30;;;;;;;0.00;0.00;;;17.10;99.90;;;;;;6213143;23;20051;-88
2023/09/20 02:29:56;;;;;;;0.00;0.00;;;;;;;;;;6212782;23;20005;-88
2023/09/20 02:32:23;;;;;;;0.00;0.00;;;;;;;;;;6212123;23;20024;-88
2023/09/20 02:34:49;;;;;;;0.00;0.00;;;16.90;99.90;;;;;;6212694;23;20009;-88
2023/09/20 02:37:17;;;;;;;0.00;0.00;;;;;;;;;;6212433;23;20317;-89
2023/09/20 02:39:42;;;;;;;0.00;0.00;;;17.00;99.90;;;;;;6210252;23;20015;-88
2023/09/20 02:42:08;;;;;;;0.00;0.00;;;16.90;99.90;;;;;;6212584;23;20240;-89
2023/09/20 02:44:35;;;;;;;0.00;0.00;;;;;;;;;;6212886;23;20379;-88
2023/09/20 02:47:00;;;;;;;0.00;0.00;;;17.00;99.90;;;;;;6212702;23;20333;-88
2023/09/20 02:49:26;;;;;;;0.00;0.00;;;;;;;;;;6211949;23;20024;-88
2023/09/20 02:51:52;;;;;;;0.00;0.00;;;;;;;;;;6212887;23;20008;-88
2023/09/20 02:54:18;;;;;;;0.00;0.00;;;17.00;99.90;;;;;;6212022;23;20009;-89
2023/09/20 02:56:44;;;;;;;0.00;0.00;;;17.00;99.90;;;;;;6213298;23;20068;-87
2023/09/20 02:59:10;;;;;;;0.00;0.00;;;;;;;;;;6212981;23;20017;-89
2023/09/20 03:01:36;;;;;;;0.00;0.00;;;;;;;;;;6210906;23;20063;-90
2023/09/20 03:04:03;;;;;;;0.00;0.00;;;;;;;;;;6211622;23;20074;-88
2023/09/20 03:06:29;;;;;;;0.00;0.00;;;17.20;99.90;;;;;;6212482;23;19998;-88
2023/09/20 03:08:55;;;;;;;0.00;0.00;;;;;;;;;;6212964;23;20051;-88
2023/09/20 03:11:21;;;;;;;0.00;0.00;;;17.10;99.90;;;;;;6212024;23;20083;-88
2023/09/20 03:13:48;;;;;;;0.00;0.00;;;17.00;99.90;;;;;;6212728;23;20013;-88
2023/09/20 03:16:19;;;;;;;0.00;0.00;;;16.90;99.90;;;;;;6211356;23;20065;-88
2023/09/20 03:18:51;;;;;;;0.00;0.00;;;17.00;99.90;;;;;;6212489;23;20011;-89
2023/09/20 03:21:17;;;;;;;0.00;0.00;;;16.80;99.90;;;;;;6212072;23;20032;-87
2023/09/20 03:23:44;;;;;;;0.00;0.00;;;;;;;;;;6211847;23;20220;-88
2023/09/20 03:26:10;;;;;;;0.00;0.00;;;16.90;99.90;;;;;;6212077;23;20008;-89
2023/09/20 03:28:36;;;;;;;0.00;0.00;;;;;;;;;;6212827;23;20004;-88
2023/09/20 03:31:10;;;;;;;0.00;0.00;;;;;;;;;;6212553;23;20050;-88
2023/09/20 03:33:36;;;;;;;0.00;0.00;;;16.90;99.90;;;;;;6212239;23;20008;-89
2023/09/20 03:36:09;;;;;;;0.00;0.00;;;;;;;;;;6211262;23;20455;-88
2023/09/20 03:38:36;;;;;;;0.00;0.00;;;;;;;;;;6213238;23;19997;-86
2023/09/20 03:41:04;;;;;;;0.00;0.00;;;16.60;99.90;;;;;;6211245;23;20088;-89
2023/09/20 03:43:30;;;;;;;0.00;0.00;;;16.70;99.90;;;;;;6212186;23;20009;-87
2023/09/20 03:45:56;;;;;;;0.00;0.00;;;16.80;99.90;;;;;;6211808;23;19997;-86
2023/09/20 03:48:22;;;;;;;0.00;0.00;;;;;;;;;;6211175;23;19997;-88
2023/09/20 03:50:49;;;;;;;0.00;0.00;;;16.60;99.90;;;;;;6210662;23;19997;-87
2023/09/20 03:53:15;;;;;;;0.00;0.00;;;16.60;99.90;;;;;;6211890;23;20012;-88
2023/09/20 03:55:41;;;;;;;0.00;0.00;;;;;;;;;;6211355;23;20009;-87
2023/09/20 03:58:06;;;;;;;0.00;0.00;;;16.60;99.90;;;;;;6212094;23;20004;-87
2023/09/20 04:00:34;;;;;;;0.00;0.00;;;;;;;;;;6211697;23;20096;-88
2023/09/20 04:03:01;;;;;;;0.00;0.00;;;;;;;;;;6211875;23;20467;-87
2023/09/20 04:05:27;;;;;;;0.00;0.00;;;16.50;99.90;;;;;;6211925;23;20012;-88
2023/09/20 04:07:53;;;;;;;0.00;0.00;;;16.60;99.90;;;;;;6210988;23;20004;-88
2023/09/20 04:10:19;;;;;;;0.00;0.00;;;;;;;;;;6212058;23;19997;-87
2023/09/20 04:12:47;;;;;;;0.00;0.00;;;16.50;99.90;;;;;;6212217;23;20005;-88
2023/09/20 04:15:13;;;;;;;0.00;0.00;;;16.50;99.90;;;;;;6212721;23;20424;-87
2023/09/20 04:17:39;;;;;;;0.00;0.00;;;16.50;99.90;;;;;;6212267;23;20009;-87
2023/09/20 04:20:09;;;;;;;0.00;0.00;;;16.50;99.90;;;;;;6212206;23;20012;-87
2023/09/20 04:22:37;;;;;;;0.00;0.00;;;;;;;;;;6211929;23;20005;-88
2023/09/20 04:25:05;;;;;;;0.00;0.00;;;16.20;99.90;;;;;;6210392;23;20424;-87
2023/09/20 04:27:31;;;;;;;0.00;0.00;;;16.40;99.90;;;;;;6213921;23;20339;-88
2023/09/20 04:29:57;;;;;;;0.00;0.00;;;;;;;;;;6214090;23;20007;-88
2023/09/20 04:32:23;;;;;;;0.00;0.00;;;;;;;;;;6213960;23;20339;-89
2023/09/20 04:34:53;;;;;;;0.00;0.00;;;;;;;;;;6214328;23;20462;-87
2023/09/20 04:37:20;;;;;;;;;;;16.40;99.90;;;;;;6216501;23;20343;-87
2023/09/20 04:39:47;;;;;;;0.00;0.00;;;16.30;99.90;;;;;;6213364;23;19900;-88
2023/09/20 04:42:13;;;;;;;0.00;0.00;;;16.40;99.90;;;;;;6214018;23;20443;-89
2023/09/20 04:44:39;;;;;;;0.00;0.00;;;;;;;;;;6214376;23;20001;-88
2023/09/20 04:47:05;;;;;;;0.00;0.00;;;16.40;99.90;;;;;;6213745;23;20619;-87
2023/09/20 04:49:31;;;;;;;0.00;0.00;;;;;;;;;;6212331;23;20045;-87
2023/09/20 04:52:00;;;;;;;0.00;0.00;;;;;;;;;;6214104;23;20340;-87
2023/09/20 04:54:26;;;;;;;0.00;0.00;;;;;;;;;;6213112;23;20075;-88
2023/09/20 04:56:53;;;;;;;0.00;0.00;;;;;;;;;;6214195;23;20591;-88
2023/09/20 04:59:19;;;;;;;0.00;0.00;;;16.40;99.90;;;;;;6213679;23;20340;-88
2023/09/20 05:01:45;;;;;;;0.00;0.00;;;;;;;;;;6213862;23;20000;-87
2023/09/20 05:04:13;;;;;;;0.00;0.00;;;16.30;99.90;;;;;;6213126;23;20015;-88
2023/09/20 05:06:41;;;;;;;0.00;0.00;;;16.30;99.90;;;;;;6214080;23;20011;-87
2023/09/20 05:09:07;;;;;;;0.00;0.00;;;16.40;99.90;;;;;;6213642;23;20079;-87
2023/09/20 05:11:33;;;;;;;0.00;0.00;;;16.40;99.90;;;;;;6213910;23;20036;-87
2023/09/20 05:13:59;;;;;;;0.00;0.00;;;;;;;;;;6214014;23;20012;-87
2023/09/20 05:16:25;;;;;;;0.00;0.00;;;;;;;;;;6214034;23;20039;-88
2023/09/20 05:18:50;;;;;;;0.00;0.00;;;;;;;;;;6211224;23;20336;-89
2023/09/20 05:21:16;;;;;;;0.00;0.00;;;16.40;99.90;;;;;;6213403;23;20008;-88
2023/09/20 05:23:42;;;;;;;0.00;0.00;;;;;;;;;;6213097;23;20005;-87
2023/09/20 05:26:08;;;;;;;0.00;0.00;;;;;;;;;;6212031;23;20004;-88
2023/09/20 05:28:35;;;;;;;0.00;0.00;;;16.50;99.90;;;;;;6213634;23;20008;-87
2023/09/20 05:31:05;;;;;;;0.00;0.00;;;16.50;99.90;;;;;;6213261;23;20001;-88
2023/09/20 05:33:31;;;;;;;0.00;0.00;;;16.60;99.90;;;;;;6211271;23;20004;-88
2023/09/20 05:35:58;;;;;;;0.00;0.00;;;16.50;99.90;;;;;;6212690;23;20004;-88
2023/09/20 05:38:27;;;;;;;0.00;0.00;;;16.50;99.90;;;;;;6213384;23;20008;-88
2023/09/20 05:40:53;;;;;;;0.00;0.00;;;;;;;;;;6213647;23;20435;-88
2023/09/20 05:43:19;;;;;;;0.00;0.00;;;;;;;;;;6213037;23;20001;-88
2023/09/20 05:45:45;;;;;;;0.00;0.00;;;16.60;99.90;;;;;;6213364;23;20004;-89
2023/09/20 05:48:12;;;;;;;0.00;0.00;;;;;;;;;;6213038;23;20336;-88
2023/09/20 05:50:38;;;;;;;0.00;0.00;;;16.70;99.90;;;;;;6213579;23;20443;-88
2023/09/20 05:53:11;;;;;;;0.00;0.00;;;16.60;99.90;;;;;;6213956;23;20021;-89
2023/09/20 05:55:38;;;;;;;0.00;0.00;;;16.50;99.90;;;;;;6213201;23;20436;-88
2023/09/20 05:58:04;;;;;;;0.00;0.00;;;16.70;99.90;;;;;;6213618;23;20009;-89
2023/09/20 06:00:30;;;;;;;0.00;0.00;;;;;;;;;;6213053;23;20499;-87
2023/09/20 06:02:59;;;;;;;0.00;0.00;;;16.70;99.90;;;;;;6213611;23;20013;-88
2023/09/20 06:05:28;;;;;;;0.00;0.00;;;16.80;99.90;;;;;;6212739;23;20004;-87
2023/09/20 06:07:54;;;;;;;0.00;0.00;;;16.80;99.90;;;;;;6213249;23;20008;-88
2023/09/20 06:10:20;;;;;;;0.00;0.00;;;16.80;99.90;;;;;;6213395;23;20059;-86
2023/09/20 06:12:46;;;;;;;0.00;0.00;;;16.80;99.90;;;;;;6213847;23;20019;-88
2023/09/20 06:15:15;;;;;;;0.00;0.00;;;;;;;;;;6213257;23;20028;-88
2023/09/20 06:17:47;;;;;;;0.00;0.00;;;16.90;99.90;;;;;;6213892;23;20406;-88
2023/09/20 06:20:19;;;;;;;0.00;0.00;;;17.00;99.90;;;;;;6213611;23;20605;-87
2023/09/20 06:22:51;;;;;;;0.00;0.00;;;17.10;99.90;;;;;;6214096;23;20005;-87
2023/09/20 06:25:20;;;;;;;0.00;0.00;;;17.10;99.90;;;;;;6213523;23;20007;-89
2023/09/20 06:27:50;;;;;;;;;;;17.20;99.90;;;;;;6214165;23;20004;-88
2023/09/20 06:30:17;;;;;;;0.00;0.00;;;;;;;;;;6213479;23;19938;-89
2023/09/20 06:32:44;;;;;;;0.00;0.00;;;17.30;99.90;;;;;;6213594;23;20435;-89
2023/09/20 06:35:10;;;;;;;0.00;0.00;;;17.30;99.90;;;;;;6213253;23;20012;-87
2023/09/20 06:37:37;;;;;;;0.00;0.00;;;17.30;99.90;;;;;;6213495;23;20004;-88
2023/09/20 06:40:04;;;;;;;0.00;0.00;;;17.60;99.90;;;;;;6213568;23;20008;-89
2023/09/20 06:42:30;;;;;;;0.00;0.00;;;;;;;;;;6211593;23;20004;-88
2023/09/20 06:44:57;;;;;;;0.00;0.00;;;;;;;;;;6212963;23;20087;-89
2023/09/20 06:47:23;;;;;;;0.00;0.00;;;17.60;99.90;;;;;;6212631;23;20052;-88
2023/09/20 06:49:50;;;;;;;0.00;0.00;;;17.80;99.90;;;;;;6212993;23;20083;-86
2023/09/20 06:52:16;;;;;;;0.00;0.00;;;17.70;99.90;;;;;;6212937;23;20436;-88
2023/09/20 06:54:42;;;;;;;0.00;0.00;;;17.90;99.90;;;;;;6212814;23;20012;-87
2023/09/20 06:57:13;;;;;;;0.00;0.00;;;;;;;;;;6212710;23;20321;-88
2023/09/20 06:59:38;;;;;;;0.00;0.00;;;18.20;99.90;;;;;;6212700;23;20012;-89
2023/09/20 07:02:07;;;;;;;0.00;0.00;;;;;;;;;;6212714;23;20012;-87
2023/09/20 07:04:33;;;;;;;0.00;0.00;;;18.30;99.90;;;;;;6212799;23;20486;-87
2023/09/20 07:06:59;;;;;;;0.00;0.00;;;;;;;;;;6214287;23;20000;-88
2023/09/20 07:09:25;;;;;;;0.00;0.00;;;18.20;99.90;;;;;;6212823;23;20024;-88
2023/09/20 07:11:51;;;;;;;0.00;0.00;;;;;;;;;;6212774;23;20450;-89
2023/09/20 07:14:26;;;;;;;0.00;0.00;;;18.20;99.90;;;;;;6212196;23;20069;-89
2023/09/20 07:16:52;;;;;;;0.00;0.00;;;;;;;;;;6212851;23;20007;-88
2023/09/20 07:19:20;;;;;;;0.00;0.00;;;18.20;99.90;;;;;;6212480;23;19997;-88
2023/09/20 07:21:45;;;;;;;0.00;0.00;;;18.20;99.90;;;;;;6213046;23;20004;-89
2023/09/20 07:24:12;;;;;;;0.00;0.00;;;18.30;99.90;;;;;;6212471;23;20329;-89
2023/09/20 07:26:45;;;;;;;0.00;0.00;;;18.30;99.90;;;;;;6212883;23;20008;-89
2023/09/20 07:29:15;;;;;;;0.00;0.00;;;18.30;99.90;;;;;;6187749;23;20009;-87
2023/09/20 07:31:41;;;;;;;0.00;0.00;;;18.20;99.90;;;;;;6212259;23;20321;-88
2023/09/20 07:34:08;;;;;;;0.00;0.00;;;18.40;99.90;;;;;;6212084;23;20005;-89
2023/09/20 07:36:37;;;;;;;0.00;0.00;;;;;;;;;;6214027;23;20043;-88
2023/09/20 07:39:07;;;;;;;0.00;0.00;;;;;;;;;;6212763;23;20023;-87
2023/09/20 07:41:33;;;;;;;0.00;0.00;;;18.30;99.90;;;;;;6212433;23;20087;-88
2023/09/20 07:43:59;;;;;;;0.00;0.00;;;;;;;;;;6212732;23;20407;-87
2023/09/20 07:46:25;;;;;;;0.00;0.00;;;;;;;;;;6212556;23;20012;-88
2023/09/20 07:48:51;;;;;;;0.00;0.00;;;;;;;;;;6212193;23;20028;-87
2023/09/20 07:51:20;;;;;;;0.00;0.00;;;18.50;99.90;;;;;;6205710;23;20225;-89
2023/09/20 07:53:53;;;;;;;0.00;0.00;;;;;;;;;;6210926;23;20670;-88
2023/09/20 07:56:19;;;;;;;0.00;0.00;;;18.60;99.90;;;;;;6212847;23;20431;-88
2023/09/20 07:58:45;;;;;;;0.00;0.00;;;;;;;;;;6210709;23;20104;-87
2023/09/20 08:01:12;;;;;;;0.00;0.00;;;18.60;99.90;;;;;;6210941;23;20052;-88
2023/09/20 08:03:38;;;;;;;0.00;0.00;;;18.70;99.90;;;;;;6212736;23;20448;-88
2023/09/20 08:06:09;;;;;;;0.00;0.00;;;18.70;99.90;;;;;;6212977;23;20007;-87
2023/09/20 08:08:37;;;;;;;0.00;0.00;;;18.80;99.90;;;;;;6211245;23;20004;-88
2023/09/20 08:11:03;;;;;;;0.00;0.00;;;;;;;;;;6213188;23;20001;-90
2023/09/20 08:13:29;;;;;;;0.00;0.00;;;;;;;;;;6211740;23;20086;-90
2023/09/20 08:15:55;;;;;;;0.00;0.00;;;;;;;;;;6208466;23;20172;-89
2023/09/20 08:21:05;;;;;;;0.00;0.00;;;19.20;99.90;;;;;;6214074;23;20058;-87
2023/09/20 09:02:15;;;;;;;0.00;0.00;;;20.20;99.90;;;;;;6215858;23;20011;-88
2023/09/20 09:04:53;;;;;;;0.00;0.00;;;20.30;99.90;;;;;;6189180;23;20004;-90
2023/09/20 09:07:20;;;;;;;0.00;0.00;;;20.40;99.90;;;;;;6188664;23;20389;-89
2023/09/20 09:09:46;;;;;;;0.00;0.00;;;20.40;99.90;;;;;;6189124;23;20029;-89
2023/09/20 09:12:12;;;;;;;0.00;0.00;;;20.60;99.90;;;;;;6188794;23;20002;-90
2023/09/20 09:14:39;;;;;;;0.00;0.00;;;20.70;99.90;;;;;;6188333;23;20011;-89
2023/09/20 09:17:07;;;;;;;0.00;0.00;;;20.70;99.90;;;;;;6189156;23;20001;-89
2023/09/20 09:19:33;;;;;;;0.00;0.00;;;20.90;99.90;;;;;;6188782;23;20008;-89
2023/09/20 09:22:00;;;;;;;0.00;0.00;;;21.00;99.90;;;;;;6188617;23;20448;-89
2023/09/20 09:24:29;;;;;;;0.00;0.00;;;21.10;99.90;;;;;;6188519;23;20131;-89
2023/09/20 09:27:05;;;;;;;0.00;0.00;;;21.30;99.90;;;;;;6188985;23;20004;-88
2023/09/20 09:29:32;;;;;;;0.00;0.00;;;21.20;99.90;;;;;;6188233;23;20055;-89
2023/09/20 09:32:00;;;;;;;0.00;0.00;;;21.10;99.90;;;;;;6188742;23;20001;-88
2023/09/20 09:34:26;;;;;;;0.00;0.00;;;;;;;;;;6188749;23;20001;-88
2023/09/20 09:36:56;;;;;;;0.00;0.00;;;;;;;;;;6188528;23;20059;-88
2023/09/20 09:39:22;;;;;;;0.00;0.00;;;;;;;;;;6188472;23;20340;-89
2023/09/20 09:41:48;;;;;;;0.00;0.00;;;;;;;;;;6187728;23;20004;-88
2023/09/20 09:44:14;;;;;;;0.00;0.00;;;21.40;99.90;;;;;;6188328;23;20443;-89
2023/09/20 09:46:42;;;;;;;0.00;0.00;;;21.40;99.90;;;;;;6188574;23;20008;-89
2023/09/20 09:49:18;;;;;;;0.00;0.00;;;21.30;99.90;;;;;;6188954;23;20004;-89
2023/09/20 09:51:52;;;;;;;0.00;0.00;;;21.50;99.90;;;;;;6189420;23;20000;-88
2023/09/20 09:54:19;;;;;;;0.00;0.00;;;21.40;99.90;;;;;;6187964;23;20004;-87
2023/09/20 09:56:46;;;;;;;0.00;0.00;;;21.50;99.90;;;;;;6189130;23;20004;-89
2023/09/20 09:59:11;;;;;;;0.00;0.00;;;21.60;99.90;;;;;;6194179;23;20013;-88
2023/09/20 10:01:38;;;;;;;0.00;0.00;;;21.70;99.90;;;;;;6213804;23;20009;-90
2023/09/20 10:04:07;;;;;;;0.00;0.00;;;21.70;99.90;;;;;;6215560;23;20028;-88
2023/09/20 10:06:38;;;;;;;0.00;0.00;;;21.70;99.90;;;;;;6214182;23;20032;-89
2023/09/20 10:09:10;;;;;;;0.00;0.00;;;21.80;99.90;;;;;;6213553;23;20008;-89
2023/09/20 10:11:38;;;;;;;0.00;0.00;;;21.80;99.90;;;;;;6213593;23;20036;-88
2023/09/20 10:14:07;;;;;;;0.00;0.00;;;21.80;99.90;;;;;;6213665;23;20489;-89
2023/09/20 10:16:42;;;;;;;0.00;0.00;;;21.70;99.90;;;;;;6213570;23;20070;-89
2023/09/20 10:19:12;;;;;;;0.00;0.00;;;21.60;99.90;;;;;;6215255;23;20010;-90
2023/09/20 10:21:40;;;;;;;0.00;0.00;;;21.60;99.90;;;;;;6213563;23;20079;-89
2023/09/20 10:24:14;;;;;;;0.00;0.00;;;21.60;99.90;;;;;;6213191;23;20466;-89
2023/09/20 10:26:40;;;;;;;0.00;0.00;;;21.70;99.90;;;;;;6213424;23;20004;-90
2023/09/20 10:29:39;;;;;;;0.00;0.00;;;21.80;99.90;;;;;;6213851;23;20005;-90
2023/09/20 10:32:17;;;;;;;0.00;0.00;;;21.80;99.90;;;;;;6133789;23;20007;-88
2023/09/20 10:35:19;;;;;;;0.00;0.00;;;21.80;99.90;;;;;;6213595;23;20055;-90
2023/09/20 10:38:17;;;;;;;0.00;0.00;;;21.70;99.90;;;;;;6214754;23;20012;-86
2023/09/20 10:40:47;;;;;;;0.00;0.00;;;21.70;99.90;;;;;;6214853;23;20009;-88
2023/09/20 10:43:20;;;;;;;0.00;0.00;;;21.70;99.90;;;;;;6215603;23;20062;-85
2023/09/20 10:45:51;;;;;;;0.00;0.00;;;21.80;99.90;;;;;;6214686;23;20024;-87
2023/09/20 10:48:24;;;;;;;0.00;0.00;;;21.80;99.90;;;;;;6214572;23;20068;-85
2023/09/20 10:50:57;;;;;;;0.00;0.00;;;22.10;99.90;;;;;;6212097;23;20052;-88
2023/09/20 10:53:43;;;;;;;0.00;0.00;;;22.00;99.90;;;;;;6214552;23;20008;-88
2023/09/20 10:56:10;;;;;;;0.00;0.00;;;22.00;99.90;;;;;;6217353;23;20009;-87
2023/09/20 10:58:38;;;;;;;0.00;0.00;;;22.10;99.90;;;;;;6214688;23;20017;-88
2023/09/20 11:01:06;;;;;;;0.00;0.00;;;22.10;99.90;;;;;;6190112;23;20087;-88
2023/09/20 11:03:32;;;;;;;0.00;0.00;;;22.10;99.90;;;;;;6188732;23;20012;-87
2023/09/20 11:05:58;;;;;;;0.00;0.00;;;;;;;;;;6188592;23;20336;-86
2023/09/20 11:08:24;;;;;;;0.00;0.00;;;22.30;99.90;;;;;;6189024;23;20008;-87
2023/09/20 11:10:50;;;;;;;0.00;0.00;;;22.30;99.90;;;;;;6189096;23;20004;-87
2023/09/20 11:13:19;;;;;;;0.00;0.00;;;22.30;99.90;;;;;;6189182;23;20011;-87
2023/09/20 11:15:46;;;;;;;0.00;0.00;;;;;;;;;;6189529;23;20051;-86
2023/09/20 11:18:17;;;;;;;0.00;0.00;;;22.20;99.90;;;;;;6189212;23;20068;-87
2023/09/20 11:20:43;;;;;;;0.00;0.00;;;22.30;99.90;;;;;;6190211;23;20007;-87
2023/09/20 11:23:09;;;;;;;0.00;0.00;;;22.30;99.90;;;;;;6188849;23;20016;-86
2023/09/20 11:25:36;;;;;;;0.00;0.00;;;;;;;;;;6188558;23;20008;-87
2023/09/20 11:28:04;;;;;;;0.00;0.00;;;22.40;99.90;;;;;;6189097;23;20015;-87
2023/09/20 11:30:31;;;;;;;0.00;0.00;;;;;;;;;;6189857;23;20332;-86
2023/09/20 11:32:58;;;;;;;0.00;0.00;;;22.60;99.90;;;;;;6189989;23;20012;-86
2023/09/20 11:35:38;;;;;;;0.00;0.00;;;22.90;99.90;;;;;;6189436;23;20015;-86
2023/09/20 11:38:06;;;;;;;0.00;0.00;;;22.90;99.90;;;;;;6189768;23;20004;-87
2023/09/20 11:40:36;;;;;;;0.00;0.00;;;22.90;99.90;;;;;;6189042;23;20004;-87
2023/09/20 11:43:06;;;;;;;0.00;0.00;;;23.00;99.90;;;;;;6189432;23;20008;-87
2023/09/20 11:45:34;;;;;;;0.00;0.00;;;23.20;99.90;;;;;;6188536;23;20007;-88
2023/09/20 11:48:08;;;;;;;0.00;0.00;;;23.50;99.90;;;;;;6189707;23;20028;-86
2023/09/20 11:50:34;;;;;;;0.00;0.00;;;23.60;99.90;;;;;;6184748;23;20054;-85
2023/09/20 11:53:00;;;;;;;0.00;0.00;;;;;;;;;;6188431;23;20448;-86
2023/09/20 11:55:26;;;;;;;0.00;0.00;;;23.80;99.90;;;;;;6188174;23;20020;-86
2023/09/20 11:57:54;;;;;;;0.00;0.00;;;23.70;99.90;;;;;;6188304;23;20008;-86
2023/09/20 12:00:25;;;;;;;0.00;0.00;;;23.80;99.90;;;;;;6208338;23;20016;-86
2023/09/20 12:02:51;;;;;;;0.00;0.00;;;23.90;99.90;;;;;;6214442;23;20051;-86
2023/09/20 12:05:18;;;;;;;0.00;0.00;;;23.80;99.90;;;;;;6213691;23;20506;-87
2023/09/20 12:08:06;;;;;;;0.00;0.00;;;23.80;99.90;;;;;;6215894;23;20059;-88
2023/09/20 12:10:32;;;;;;;0.00;0.00;;;23.80;99.90;;;;;;6209409;23;20076;-87
2023/09/20 12:12:58;;;;;;;0.00;0.00;;;;;;;;;;6215270;23;20012;-87
2023/09/20 12:15:24;;;;;;;0.00;0.00;;;;;;;;;;6212628;23;20009;-88
2023/09/20 12:17:51;;;;;;;0.00;0.00;;;23.50;99.90;;;;;;6212769;23;20035;-87
2023/09/20 12:20:17;;;;;;;0.00;0.00;;;23.50;99.90;;;;;;6213695;23;20075;-86
2023/09/20 12:22:43;;;;;;;0.00;0.00;;;23.50;99.90;;;;;;6212988;23;20021;-88
2023/09/20 12:25:15;;;;;;;0.00;0.00;;;23.40;99.90;;;;;;6213009;23;20059;-87
2023/09/20 12:27:41;;;;;;;0.00;0.00;;;23.30;99.90;;;;;;6212274;23;20000;-87
2023/09/20 12:30:08;;;;;;;0.00;0.00;;;23.40;99.90;;;;;;6213270;23;20432;-86
2023/09/20 12:32:34;;;;;;;0.00;0.00;;;;;;;;;;6212358;23;20460;-87
2023/09/20 12:35:03;;;;;;;0.00;0.00;;;23.50;99.90;;;;;;6213260;23;20046;-87
2023/09/20 12:37:30;;;;;;;0.00;0.00;;;;;;;;;;6212238;23;20012;-86
2023/09/20 12:39:55;;;;;;;0.00;0.00;;;23.40;99.90;;;;;;6211420;23;20005;-87
2023/09/20 12:42:23;;;;;;;0.00;0.00;;;23.40;99.90;;;;;;6212369;23;20008;-87
2023/09/20 12:44:49;;;;;;;0.00;0.00;;;23.40;99.90;;;;;;6213205;23;20001;-87
2023/09/20 12:47:16;;;;;;;0.00;0.00;;;23.50;99.90;;;;;;6213316;23;20019;-86
2023/09/20 12:49:42;;;;;;;0.00;0.00;;;23.60;99.90;;;;;;6211959;23;20008;-87
2023/09/20 12:52:08;;;;;;;0.00;0.00;;;;;;;;;;6213640;23;20028;-87
2023/09/20 12:54:33;;;;;;;0.00;0.00;;;23.90;99.90;;;;;;6215100;23;20012;-87
2023/09/20 12:56:59;;;;;;;0.00;0.00;;;;;;;;;;6214158;23;20000;-87
2023/09/20 12:59:27;;;;;;;0.00;0.00;;;;;;;;;;6214605;23;20174;-88
2023/09/20 13:01:59;;;;;;;0.00;0.00;;;24.00;99.90;;;;;;6214515;23;20001;-86
2023/09/20 13:04:24;;;;;;;0.00;0.00;;;24.00;99.90;;;;;;6215771;23;20420;-86
2023/09/20 13:06:50;;;;;;;0.00;0.00;;;;;;;;;;6215594;23;20001;-87
2023/09/20 13:09:16;;;;;;;0.00;0.00;;;24.10;99.90;;;;;;6215634;23;20428;-87
2023/09/20 13:11:45;;;;;;;0.00;0.00;;;;;;;;;;6215753;23;20008;-87
2023/09/20 13:14:12;;;;;;;0.00;0.00;;;;;;;;;;6215533;23;20011;-87
2023/09/20 13:16:39;;;;;;;0.00;0.00;;;24.40;99.90;;;;;;6215190;23;20036;-87
2023/09/20 13:19:05;;;;;;;0.00;0.00;;;24.30;99.90;;;;;;6215069;23;20055;-88
2023/09/20 13:21:30;;;;;;;0.00;0.00;;;24.20;99.90;;;;;;6215046;23;20012;-86
2023/09/20 13:23:59;;;;;;;0.00;0.00;;;;;;;;;;6214430;23;20004;-87
2023/09/20 13:26:25;;;;;;;0.00;0.00;;;24.10;99.90;;;;;;6215071;23;20004;-86
2023/09/20 13:28:51;;;;;;;0.00;0.00;;;;;;;;;;6214173;23;20001;-87
2023/09/20 13:31:17;;;;;;;0.00;0.00;;;24.00;99.90;;;;;;6215831;23;19997;-86
2023/09/20 13:33:43;;;;;;;0.00;0.00;;;24.00;99.90;;;;;;6216133;23;20011;-87
2023/09/20 13:36:09;;;;;;;0.00;0.00;;;24.00;99.90;;;;;;6216201;23;20008;-87
2023/09/20 13:38:36;;;;;;;0.00;0.00;;;24.70;99.90;;;;;;6216097;23;20016;-86
2023/09/20 13:41:02;;;;;;;0.00;0.00;;;25.80;99.90;;;;;;6215877;23;20054;-86
2023/09/20 13:43:28;;;;;;;0.00;0.00;;;;;;;;;;6214882;23;20040;-86
2023/09/20 13:45:54;;;;;;;0.00;0.00;;;;;;;;;;6214934;23;20100;-86
2023/09/20 13:48:20;;;;;;;0.00;0.00;;;24.30;99.90;;;;;;6214136;23;20001;-86
2023/09/20 13:50:46;;;;;;;0.00;0.00;;;;;;;;;;6214560;23;20021;-87
2023/09/20 13:53:12;;;;;;;0.00;0.00;;;;;;;;;;6214958;23;20072;-86
2023/09/20 13:55:38;;;;;;;0.00;0.00;;;;;;;;;;6214520;23;20009;-87
2023/09/20 13:58:04;;;;;;;0.00;0.00;;;24.10;99.90;;;;;;6215728;23;20024;-87
2023/09/20 14:00:29;;;;;;;0.00;0.00;;;26.40;99.90;;;;;;6214128;23;20016;-87
2023/09/20 14:02:56;;;;;;;0.00;0.00;;;;;;;;;;6215670;23;20004;-87
2023/09/20 14:05:23;;;;;;;0.00;0.00;;;24.30;99.90;;;;;;6216089;23;20059;-87